Time;durP1;ratioP1;P1;durP2;ratioP2;P2;SDS_P1;SDS_P2;PMS_P1;PMS_P2;Temp;Humidity;BMP_temperature;BMP_pressure;BME280_temperature;BME280_humidity;BME280_pressure;Samples;Min_cycle;Max_cycle;Signal;HPM_P1;HPM_P2
2022/04/24 00:00:57;;;;;;;6.88;6.03;;;;;;;12.50;52.00;97597.91;5027299;28;20076;-79
2022/04/24 00:03:23;;;;;;;6.20;5.70;;;;;;;12.50;52.23;97586.41;5027011;28;20052;-79
2022/04/24 00:05:48;;;;;;;7.13;6.43;;;;;;;12.51;52.24;97578.09;5024840;28;20079;-78
2022/04/24 00:08:13;;;;;;;6.28;5.65;;;;;;;12.47;51.91;97584.31;5026091;28;20029;-78
2022/04/24 00:10:38;;;;;;;9.00;6.75;;;;;;;12.40;52.24;97573.19;5009565;28;20033;-78
2022/04/24 00:13:04;;;;;;;6.13;5.63;;;;;;;12.36;52.29;97572.19;5024795;28;20029;-78
2022/04/24 00:15:29;;;;;;;7.50;6.15;;;;;;;12.40;51.92;97579.34;5027001;28;20071;-78
2022/04/24 00:17:54;;;;;;;7.35;5.97;;;;;;;12.39;51.92;97574.25;5009151;28;20397;-78
2022/04/24 00:20:20;;;;;;;6.53;5.85;;;;;;;12.37;52.09;97571.09;5026316;28;20029;-78
2022/04/24 00:22:45;;;;;;;6.70;6.10;;;;;;;12.37;51.91;97563.06;5025482;28;20036;-76
2022/04/24 00:25:11;;;;;;;6.28;5.68;;;;;;;12.35;52.52;97562.56;5024897;28;20490;-77
2022/04/24 00:27:36;;;;;;;8.00;7.20;;;;;;;12.19;52.62;97561.22;5023103;28;20042;-78
2022/04/24 00:30:03;;;;;;;6.25;5.68;;;;;;;12.32;52.41;97560.47;5024566;28;20033;-78
2022/04/24 00:32:28;;;;;;;6.82;6.15;;;;;;;12.21;52.12;97562.47;5023118;28;20025;-76
2022/04/24 00:34:53;;;;;;;6.95;6.35;;;;;;;12.18;52.18;97557.72;5025717;28;20532;-76
2022/04/24 00:37:19;;;;;;;6.70;6.07;;;;;;;12.22;52.07;97553.38;5023701;28;20040;-76
2022/04/24 00:39:44;;;;;;;6.43;5.88;;;;;;;12.28;52.53;97556.78;5023557;28;20119;-76
2022/04/24 00:42:09;;;;;;;7.22;6.53;;;;;;;12.26;52.39;97548.25;5026215;28;20033;-76
2022/04/24 00:44:35;;;;;;;6.68;6.07;;;;;;;12.08;52.11;97546.38;5017040;28;20075;-76
2022/04/24 00:47:12;;;;;;;6.88;6.22;;;;;;;12.14;52.67;97542.56;5024055;28;20108;-76
2022/04/24 00:49:38;;;;;;;6.72;6.13;;;;;;;12.10;52.91;97544.22;5026870;28;20029;-76
2022/04/24 00:52:04;;;;;;;9.18;7.00;;;;;;;12.09;52.50;97540.75;5026113;28;20022;-76
2022/04/24 00:54:29;;;;;;;7.68;6.88;;;;;;;12.05;53.04;97542.41;5027597;28;20037;-78
2022/04/24 00:56:54;;;;;;;7.03;6.40;;;;;;;12.12;52.65;97542.03;5029578;28;20017;-79
2022/04/24 00:59:20;;;;;;;7.18;6.40;;;;;;;11.93;53.35;97542.03;5005821;28;20033;-79
2022/04/24 01:01:45;;;;;;;7.60;6.68;;;;;;;11.94;53.19;97533.75;5022163;28;20086;-78
2022/04/24 01:04:12;;;;;;;8.13;7.15;;;;;;;11.91;53.43;97530.84;5026823;28;20021;-78
2022/04/24 01:06:42;;;;;;;7.35;6.57;;;;;;;12.03;53.04;97540.00;5004278;28;20103;-79
2022/04/24 01:09:19;;;;;;;8.02;7.22;;;;;;;11.94;53.29;97535.63;5028738;28;20517;-79
2022/04/24 01:11:52;;;;;;;7.97;7.00;;;;;;;11.88;52.84;97529.53;5008977;28;20037;-78
2022/04/24 01:14:19;;;;;;;7.05;6.43;;;;;;;11.81;53.09;97531.78;5027200;28;20026;-79
2022/04/24 01:16:47;;;;;;;6.80;6.18;;;;;;;11.89;53.12;97536.47;5025197;28;20414;-79
2022/04/24 01:19:13;;;;;;;7.57;6.70;;;;;;;11.86;53.02;97538.94;5020726;28;20026;-78
2022/04/24 01:21:43;;;;;;;8.38;6.80;;;;;;;11.85;53.25;97537.34;5025070;28;20033;-78
2022/04/24 01:24:09;;;;;;;7.57;6.88;;;;;;;11.81;53.33;97539.81;5025864;28;20079;-78
2022/04/24 01:26:35;;;;;;;7.75;6.97;;;;;;;11.81;52.76;97544.34;5028281;28;20043;-78
2022/04/24 01:29:01;;;;;;;7.93;7.13;;;;;;;11.80;53.35;97534.72;5026335;28;20116;-79
2022/04/24 01:31:27;;;;;;;6.55;5.90;;;;;;;11.73;53.40;97531.63;5026498;28;20034;-77
2022/04/24 01:33:52;;;;;;;7.35;6.65;;;;;;;11.74;53.00;97523.31;5026645;28;20060;-77
2022/04/24 01:36:18;;;;;;;8.00;7.15;;;;;;;11.72;53.33;97525.50;4987818;28;20131;-77
2022/04/24 01:38:43;;;;;;;9.52;6.35;;;;;;;11.70;53.61;97522.31;5025844;28;20037;-77
2022/04/24 01:41:09;;;;;;;7.43;6.55;;;;;;;11.62;53.47;97519.44;5007436;28;20041;-77
2022/04/24 01:43:38;;;;;;;8.38;7.53;;;;;;;11.60;53.66;97524.28;5026638;28;20064;-78
2022/04/24 01:46:07;;;;;;;7.00;6.30;;;;;;;11.56;53.09;97521.38;5020760;28;20056;-78
2022/04/24 01:48:33;;;;;;;8.05;7.22;;;;;;;11.57;53.64;97525.66;5025869;28;20042;-77
2022/04/24 01:51:03;;;;;;;8.35;7.53;;;;;;;11.57;53.63;97522.19;5024345;28;20524;-77
2022/04/24 01:53:29;;;;;;;8.75;7.22;;;;;;;11.55;53.11;97529.69;5022929;28;20036;-77
2022/04/24 01:56:05;;;;;;;7.65;6.85;;;;;;;11.58;53.67;97521.88;5024298;28;20033;-77
2022/04/24 01:58:31;;;;;;;7.53;6.82;;;;;;;11.52;53.54;97523.03;5022761;28;20121;-77
2022/04/24 02:00:57;;;;;;;7.63;6.93;;;;;;;11.58;53.62;97511.19;5023798;28;20035;-77
2022/04/24 02:03:25;;;;;;;7.80;6.93;;;;;;;11.45;54.02;97522.59;5027304;28;20358;-77
2022/04/24 02:05:50;;;;;;;8.38;7.45;;;;;;;11.43;53.34;97522.06;5027479;28;20116;-76
2022/04/24 02:08:15;;;;;;;9.10;7.35;;;;;;;11.43;53.69;97518.59;5027779;28;20124;-76
2022/04/24 02:10:41;;;;;;;9.52;8.35;;;;;;;11.48;53.65;97508.66;5024988;28;20052;-78
2022/04/24 02:13:07;;;;;;;8.35;7.45;;;;;;;11.47;53.57;97511.59;5028093;28;20478;-78
2022/04/24 02:15:33;;;;;;;11.55;7.82;;;;;;;11.37;54.23;97519.75;5027645;28;20060;-79
2022/04/24 02:17:59;;;;;;;8.15;7.35;;;;;;;11.32;53.66;97516.06;5028933;28;20052;-79
2022/04/24 02:20:24;;;;;;;8.85;8.00;;;;;;;11.39;53.93;97506.91;5030105;28;20124;-80
2022/04/24 02:22:50;;;;;;;8.20;7.40;;;;;;;11.44;53.88;97504.19;5028290;28;20044;-79
2022/04/24 02:25:17;;;;;;;7.88;7.10;;;;;;;11.34;54.38;97499.75;5027712;28;20053;-79
2022/04/24 02:27:43;;;;;;;8.45;7.53;;;;;;;11.29;53.96;97508.63;5024320;28;20073;-80
2022/04/24 02:30:09;;;;;;;9.77;8.48;;;;;;;11.35;53.46;97508.56;5027940;28;20028;-79
2022/04/24 02:32:34;;;;;;;9.23;7.90;;;;;;;11.28;54.24;97509.72;5027470;28;20033;-79
2022/04/24 02:35:00;;;;;;;9.57;7.65;;;;;;;11.23;54.13;97498.28;4990200;28;20440;-79
2022/04/24 02:37:26;;;;;;;8.48;7.68;;;;;;;11.25;54.58;97506.78;5026175;28;20445;-79
2022/04/24 02:39:52;;;;;;;9.30;8.32;;;;;;;11.20;54.16;97509.53;5030220;28;20021;-79
2022/04/24 02:42:17;;;;;;;13.25;8.07;;;;;;;11.23;54.14;97503.63;5023514;28;20160;-79
2022/04/24 02:44:43;;;;;;;8.48;7.63;;;;;;;11.21;53.98;97505.78;5010223;28;20112;-80
2022/04/24 02:47:08;;;;;;;9.15;8.23;;;;;;;11.16;54.62;97509.31;5026972;28;20034;-80
2022/04/24 02:49:33;;;;;;;8.65;7.75;;;;;;;11.23;53.81;97506.28;5022571;28;20033;-78
2022/04/24 02:51:59;;;;;;;8.38;7.57;;;;;;;11.08;54.61;97496.59;5026427;28;20033;-79
2022/04/24 02:54:24;;;;;;;8.95;8.00;;;;;;;11.14;54.20;97511.47;5028109;28;20549;-79
2022/04/24 02:56:50;;;;;;;8.68;7.78;;;;;;;11.04;54.96;97500.91;5006269;28;20041;-79
2022/04/24 02:59:16;;;;;;;9.63;8.02;;;;;;;11.09;54.76;97508.06;5027433;28;20032;-79
2022/04/24 03:01:42;;;;;;;9.65;7.65;;;;;;;11.17;54.06;97510.09;5010857;28;20075;-80
2022/04/24 03:04:08;;;;;;;9.98;7.90;;;;;;;11.06;54.85;97506.75;5019614;28;20030;-79
2022/04/24 03:06:33;;;;;;;9.13;8.23;;;;;;;11.03;54.48;97499.31;5030355;28;20033;-80
2022/04/24 03:08:59;;;;;;;9.98;8.43;;;;;;;10.97;54.41;97487.09;5030193;28;20033;-79
2022/04/24 03:11:24;;;;;;;9.15;7.97;;;;;;;11.04;54.35;97494.75;5027138;28;20035;-79
2022/04/24 03:13:49;;;;;;;10.98;8.63;;;;;;;10.87;54.83;97497.09;5011219;28;20029;-79
2022/04/24 03:16:14;;;;;;;11.38;8.30;;;;;;;10.95;54.99;97501.81;5009097;28;20030;-79
2022/04/24 03:18:40;;;;;;;9.70;8.75;;;;;;;10.88;55.27;97485.31;5025139;28;20195;-79
2022/04/24 03:21:06;;;;;;;10.82;7.82;;;;;;;10.87;54.70;97505.91;5027658;28;20036;-77
2022/04/24 03:23:31;;;;;;;8.77;7.88;;;;;;;10.92;55.02;97503.16;5018323;28;20036;-77
2022/04/24 03:25:57;;;;;;;9.07;8.18;;;;;;;10.88;54.64;97498.66;5027847;28;20083;-77
2022/04/24 03:28:22;;;;;;;11.32;8.63;;;;;;;10.83;55.38;97501.41;5025663;28;20040;-79
2022/04/24 03:30:47;;;;;;;12.43;9.07;;;;;;;10.87;55.59;97495.22;5026766;28;20120;-78
2022/04/24 03:33:13;;;;;;;8.48;7.55;;;;;;;10.80;55.11;97488.63;5026004;28;20079;-78
2022/04/24 03:35:38;;;;;;;11.63;8.00;;;;;;;10.70;55.70;97497.53;5009972;28;20025;-76
2022/04/24 03:38:03;;;;;;;9.82;8.90;;;;;;;10.86;55.64;97493.63;5021307;28;20463;-77
2022/04/24 03:40:29;;;;;;;8.43;7.63;;;;;;;10.79;55.50;97505.72;5029051;28;20040;-77
2022/04/24 03:42:54;;;;;;;9.48;8.15;;;;;;;10.81;55.48;97491.00;5029169;28;20064;-77
2022/04/24 03:45:20;;;;;;;9.15;8.25;;;;;;;10.76;55.53;97488.41;5025509;28;20505;-76
2022/04/24 03:47:47;;;;;;;8.75;7.72;;;;;;;10.81;55.42;97500.91;5026967;28;20044;-77
2022/04/24 03:50:13;;;;;;;12.73;9.10;;;;;;;10.82;55.10;97495.25;5026889;28;20025;-77
2022/04/24 03:52:39;;;;;;;10.75;7.97;;;;;;;10.73;56.13;97496.97;5030592;28;20030;-77
2022/04/24 03:55:05;;;;;;;8.80;7.68;;;;;;;10.72;55.57;97495.38;5026436;28;20489;-77
2022/04/24 03:57:31;;;;;;;8.25;7.47;;;;;;;10.74;56.27;97500.44;5028880;28;20129;-76
2022/04/24 03:59:56;;;;;;;9.63;8.43;;;;;;;10.68;56.40;97504.22;5028065;28;20093;-77
2022/04/24 04:02:22;;;;;;;8.05;7.07;;;;;;;10.63;56.20;97504.28;5027379;28;20033;-76
2022/04/24 04:04:47;;;;;;;8.65;7.43;;;;;;;10.69;55.90;97506.59;5029502;28;20029;-77
2022/04/24 04:07:13;;;;;;;10.02;7.80;;;;;;;10.64;55.56;97501.31;5028128;28;20112;-76
2022/04/24 04:09:38;;;;;;;7.97;7.10;;;;;;;10.60;55.65;97499.47;5021644;28;20723;-77
2022/04/24 04:12:06;;;;;;;9.18;8.15;;;;;;;10.63;55.98;97501.59;5027004;28;20060;-76
2022/04/24 04:14:31;;;;;;;9.35;8.35;;;;;;;10.58;55.94;97494.44;5025712;28;20037;-75
2022/04/24 04:16:56;;;;;;;7.72;7.00;;;;;;;10.49;56.83;97491.59;5026343;28;20041;-78
2022/04/24 04:19:22;;;;;;;9.45;8.05;;;;;;;10.53;56.37;97489.94;5024015;28;20074;-79
2022/04/24 04:21:48;;;;;;;8.23;7.13;;;;;;;10.54;56.50;97498.75;5022639;28;20037;-78
2022/04/24 04:24:13;;;;;;;11.10;8.05;;;;;;;10.54;56.05;97499.56;5025453;28;20021;-78
2022/04/24 04:26:39;;;;;;;8.43;7.55;;;;;;;10.45;56.56;97489.75;5024319;28;20397;-78
2022/04/24 04:29:04;;;;;;;10.90;8.02;;;;;;;10.49;56.18;97498.78;5023749;28;20037;-78
2022/04/24 04:31:29;;;;;;;11.68;8.27;;;;;;;10.40;57.02;97506.59;5025111;28;20072;-78
2022/04/24 04:33:55;;;;;;;9.40;7.63;;;;;;;10.49;56.49;97502.25;5006916;28;20036;-78
2022/04/24 04:36:20;;;;;;;8.90;7.68;;;;;;;10.81;55.68;97500.91;5027086;28;20497;-77
2022/04/24 04:38:45;;;;;;;14.07;7.15;;;;;;;10.80;55.67;97507.28;5004229;28;20037;-77
2022/04/24 04:41:11;;;;;;;10.45;7.63;;;;;;;10.74;55.68;97508.44;5027215;28;20029;-78
2022/04/24 04:43:37;;;;;;;11.40;7.30;;;;;;;10.68;56.50;97497.00;5026276;28;20112;-77
2022/04/24 04:46:02;;;;;;;10.10;6.95;;;;;;;10.83;56.29;97504.88;5021980;28;20022;-76
2022/04/24 04:48:28;;;;;;;10.20;7.38;;;;;;;10.79;55.74;97503.81;5026598;28;20049;-78
2022/04/24 04:50:53;;;;;;;9.00;7.70;;;;;;;10.94;55.81;97506.34;5029323;28;20116;-78
2022/04/24 04:53:18;;;;;;;8.98;7.80;;;;;;;10.87;55.94;97505.09;5028688;28;20391;-78
2022/04/24 04:55:44;;;;;;;10.80;7.63;;;;;;;11.07;56.00;97511.00;5027671;28;20163;-78
2022/04/24 04:58:10;;;;;;;7.75;6.95;;;;;;;11.07;55.37;97512.91;5028313;28;20036;-78
2022/04/24 05:00:35;;;;;;;9.80;7.80;;;;;;;10.96;55.32;97514.09;5029339;28;20525;-78
2022/04/24 05:03:00;;;;;;;9.35;7.78;;;;;;;11.04;55.61;97506.25;5005179;28;20045;-78
2022/04/24 05:05:26;;;;;;;9.52;6.70;;;;;;;11.16;55.63;97511.97;5026448;28;20036;-78
2022/04/24 05:07:52;;;;;;;9.57;6.68;;;;;;;11.14;56.28;97513.34;5028925;28;20042;-77
2022/04/24 05:10:18;;;;;;;10.27;7.93;;;;;;;11.10;55.87;97515.78;5026823;28;20552;-77
2022/04/24 05:12:43;;;;;;;8.38;7.13;;;;;;;11.19;56.15;97514.09;5023819;28;20041;-77
2022/04/24 05:15:13;;;;;;;7.25;6.53;;;;;;;11.16;55.79;97519.97;5006825;28;20030;-77
2022/04/24 05:17:40;;;;;;;9.18;8.23;;;;;;;11.11;56.63;97516.59;5025202;28;20037;-77
2022/04/24 05:20:09;;;;;;;10.05;7.82;;;;;;;11.18;56.12;97522.38;5022053;28;20380;-77
2022/04/24 05:22:34;;;;;;;11.32;7.72;;;;;;;11.20;55.73;97512.22;5004214;28;20064;-80
2022/04/24 05:25:00;;;;;;;9.15;6.68;;;;;;;11.26;56.29;97511.06;5011046;28;20045;-80
2022/04/24 05:27:26;;;;;;;8.75;7.00;;;;;;;11.21;56.26;97516.47;5025496;28;20041;-79
2022/04/24 05:29:51;;;;;;;8.02;6.82;;;;;;;11.22;56.25;97523.41;5021569;28;20402;-79
2022/04/24 05:32:16;;;;;;;9.07;6.95;;;;;;;11.20;56.13;97520.22;5028637;28;20037;-79
2022/04/24 05:34:43;;;;;;;9.40;7.45;;;;;;;11.19;56.59;97529.31;5028345;28;20054;-79
2022/04/24 05:37:09;;;;;;;9.88;6.95;;;;;;;11.20;56.66;97520.22;5023539;28;20497;-79
2022/04/24 05:39:35;;;;;;;9.10;7.70;;;;;;;11.38;55.84;97524.81;5026561;28;20048;-78
2022/04/24 05:42:01;;;;;;;8.63;7.72;;;;;;;11.42;55.74;97525.84;5026741;28;20052;-78
2022/04/24 05:44:26;;;;;;;9.75;8.60;;;;;;;11.31;56.63;97533.16;5032812;28;20501;-78
2022/04/24 05:46:52;;;;;;;8.23;7.35;;;;;;;11.42;55.98;97527.72;5034214;28;20044;-79
2022/04/24 05:49:17;;;;;;;9.65;7.45;;;;;;;11.58;55.52;97519.22;5035111;28;20036;-79
2022/04/24 05:51:43;;;;;;;9.80;7.85;;;;;;;11.47;56.31;97517.75;5032163;28;20032;-76
2022/04/24 05:54:09;;;;;;;11.70;7.60;;;;;;;11.43;55.85;97516.72;5036917;28;20030;-78
2022/04/24 05:56:34;;;;;;;9.63;7.43;;;;;;;11.46;56.22;97513.50;5034096;28;20052;-77
2022/04/24 05:59:00;;;;;;;13.45;8.20;;;;;;;11.45;56.38;97511.91;5032133;28;21055;-77
2022/04/24 06:01:25;;;;;;;9.15;8.15;;;;;;;11.48;56.03;97511.34;5032916;28;20523;-76
2022/04/24 06:03:50;;;;;;;10.13;7.57;;;;;;;11.57;56.21;97506.94;5030230;28;20053;-76
2022/04/24 06:06:16;;;;;;;8.40;7.55;;;;;;;11.51;56.02;97509.97;5012346;28;20056;-77
2022/04/24 06:08:43;;;;;;;11.88;8.30;;;;;;;11.55;56.12;97506.44;5030838;28;20034;-76
2022/04/24 06:11:08;;;;;;;11.90;8.25;;;;;;;11.49;56.30;97507.56;5029808;28;20041;-76
2022/04/24 06:13:33;;;;;;;8.77;7.88;;;;;;;11.59;56.70;97502.13;5031782;28;20464;-76
2022/04/24 06:15:59;;;;;;;12.45;7.63;;;;;;;11.54;57.07;97502.16;5029198;28;20028;-76
2022/04/24 06:18:25;;;;;;;11.60;8.77;;;;;;;11.53;57.28;97505.13;5012946;28;20095;-76
2022/04/24 06:20:51;;;;;;;11.30;9.23;;;;;;;11.54;56.84;97507.50;5032915;28;20386;-76
2022/04/24 06:23:16;;;;;;;13.85;8.45;;;;;;;11.62;56.72;97501.53;5028542;28;20120;-76
2022/04/24 06:25:42;;;;;;;9.25;8.00;;;;;;;11.66;56.18;97491.88;5031400;28;20018;-76
2022/04/24 06:28:08;;;;;;;13.25;9.32;;;;;;;11.73;57.23;97496.88;5029184;28;20675;-76
2022/04/24 06:30:37;;;;;;;12.57;9.00;;;;;;;11.61;57.25;97489.25;5030466;28;20025;-76
2022/04/24 06:33:06;;;;;;;8.60;7.53;;;;;;;11.67;57.37;97490.81;5024301;28;20027;-76
2022/04/24 06:35:31;;;;;;;8.18;7.07;;;;;;;11.77;56.52;97485.31;5028809;28;20043;-76
2022/04/24 06:37:57;;;;;;;12.13;9.43;;;;;;;11.69;57.00;97491.31;5009898;28;20128;-76
2022/04/24 06:40:24;;;;;;;9.27;8.10;;;;;;;11.61;57.60;97483.09;4996966;28;20030;-76
2022/04/24 06:42:52;;;;;;;10.63;8.80;;;;;;;11.75;57.45;97492.81;5029027;28;20037;-76
2022/04/24 06:45:25;;;;;;;13.23;9.32;;;;;;;11.69;57.13;97480.63;5029453;28;20087;-76
2022/04/24 06:47:50;;;;;;;14.10;8.32;;;;;;;11.68;57.12;97481.72;5031917;28;20042;-76
2022/04/24 06:50:15;;;;;;;13.38;8.50;;;;;;;11.85;56.99;97483.88;5024238;28;20037;-77
2022/04/24 06:52:41;;;;;;;11.05;8.02;;;;;;;11.88;57.06;97489.41;5032622;28;20517;-77
2022/04/24 06:55:07;;;;;;;11.90;7.43;;;;;;;11.80;57.12;97479.38;5033274;28;20033;-76
2022/04/24 06:57:33;;;;;;;10.68;8.35;;;;;;;11.95;57.66;97478.38;5026903;28;20060;-77
2022/04/24 06:59:58;;;;;;;9.73;8.52;;;;;;;11.90;56.91;97481.13;5031535;28;20037;-77
2022/04/24 07:02:23;;;;;;;10.13;8.30;;;;;;;11.90;57.53;97486.47;5030650;28;20107;-77
2022/04/24 07:04:49;;;;;;;9.48;8.18;;;;;;;11.95;57.85;97479.16;5032794;28;20037;-77
2022/04/24 07:07:14;;;;;;;10.23;8.85;;;;;;;11.92;57.61;97482.44;5028790;28;20112;-77
2022/04/24 07:09:39;;;;;;;9.10;8.15;;;;;;;11.96;57.22;97478.09;5029489;28;20029;-77
2022/04/24 07:12:05;;;;;;;9.85;8.07;;;;;;;11.94;57.54;97480.25;5032135;28;20034;-77
2022/04/24 07:14:30;;;;;;;13.15;9.35;;;;;;;12.06;57.50;97474.44;5028420;28;20034;-77
2022/04/24 07:16:56;;;;;;;9.35;8.15;;;;;;;12.08;57.42;97482.97;5025905;28;20099;-77
2022/04/24 07:19:21;;;;;;;10.75;8.93;;;;;;;12.12;57.49;97475.19;5028661;28;20139;-77
2022/04/24 07:21:48;;;;;;;12.77;9.73;;;;;;;12.16;57.34;97476.97;5032109;28;20053;-77
2022/04/24 07:24:14;;;;;;;10.70;8.65;;;;;;;12.20;57.67;97485.22;5034414;28;20084;-78
2022/04/24 07:26:39;;;;;;;13.23;9.30;;;;;;;12.29;57.22;97478.13;5034010;28;20415;-77
2022/04/24 07:29:04;;;;;;;11.90;9.70;;;;;;;12.28;57.89;97482.66;5027762;28;20041;-77
2022/04/24 07:31:30;;;;;;;10.90;9.15;;;;;;;12.23;57.87;97465.91;5024925;28;20033;-77
2022/04/24 07:33:56;;;;;;;9.95;8.93;;;;;;;12.45;57.76;97477.56;5027891;28;20537;-79
2022/04/24 07:36:22;;;;;;;12.23;8.73;;;;;;;12.47;57.96;97486.06;5031921;28;20067;-79
2022/04/24 07:38:50;;;;;;;9.40;8.50;;;;;;;12.46;58.05;97484.50;5034760;28;20037;-77
2022/04/24 07:41:15;;;;;;;10.13;7.97;;;;;;;12.39;58.26;97477.94;5016734;28;20044;-77
2022/04/24 07:43:48;;;;;;;12.98;9.27;;;;;;;12.49;57.78;97483.13;5029118;28;20041;-77
2022/04/24 07:46:13;;;;;;;9.27;8.32;;;;;;;12.47;57.78;97478.06;5029809;28;20478;-77
2022/04/24 07:48:38;;;;;;;10.10;8.95;;;;;;;12.50;57.96;97477.47;5028669;28;20041;-77
2022/04/24 07:51:04;;;;;;;10.77;7.97;;;;;;;12.57;57.78;97475.22;5029738;28;20030;-77
2022/04/24 07:53:29;;;;;;;14.60;9.13;;;;;;;12.68;57.64;97484.66;5029506;28;20041;-77
2022/04/24 07:55:54;;;;;;;26.27;9.85;;;;;;;12.79;57.08;97475.34;5023951;28;20033;-77
2022/04/24 07:58:19;;;;;;;14.30;10.73;;;;;;;12.65;57.71;97479.09;5021313;28;20370;-78
2022/04/24 08:00:47;;;;;;;10.95;9.18;;;;;;;12.60;57.30;97477.28;5026891;28;20155;-78
2022/04/24 08:03:14;;;;;;;15.55;9.70;;;;;;;12.63;57.71;97476.72;5027826;28;20029;-78
2022/04/24 08:05:42;;;;;;;12.85;9.48;;;;;;;12.61;57.75;97476.22;5021329;28;20021;-78
2022/04/24 08:08:17;;;;;;;15.25;9.60;;;;;;;12.67;57.89;97482.25;5017535;28;20079;-78
2022/04/24 08:10:45;;;;;;;12.32;10.13;;;;;;;12.72;58.04;97476.81;5022657;28;20037;-78
2022/04/24 08:13:10;;;;;;;11.07;9.50;;;;;;;12.88;57.92;97483.50;5028163;28;20056;-77
2022/04/24 08:15:37;;;;;;;24.58;11.82;;;;;;;13.01;57.61;97479.25;5024466;28;20038;-77
2022/04/24 08:18:04;;;;;;;16.30;9.75;;;;;;;13.07;57.09;97478.88;5026513;28;20017;-78
2022/04/24 08:20:30;;;;;;;21.13;9.98;;;;;;;13.05;57.11;97474.91;5028558;28;20032;-78
2022/04/24 08:23:01;;;;;;;17.38;10.05;;;;;;;13.00;58.11;97485.66;5009194;28;20029;-79
2022/04/24 08:25:28;;;;;;;12.77;9.85;;;;;;;12.96;57.99;97471.28;5025809;28;20022;-79
2022/04/24 08:27:55;;;;;;;11.75;10.00;;;;;;;13.01;57.64;97473.88;4997151;28;20029;-83
2022/04/24 08:30:23;;;;;;;11.52;9.68;;;;;;;13.14;57.45;97478.47;5030502;28;20056;-80
2022/04/24 08:32:49;;;;;;;12.77;9.85;;;;;;;13.19;57.51;97481.84;5030581;28;20041;-78
2022/04/24 08:35:18;;;;;;;15.85;11.10;;;;;;;13.12;58.56;97480.66;5025087;28;20052;-76
2022/04/24 08:37:44;;;;;;;11.20;9.98;;;;;;;13.29;58.36;97472.81;5021061;28;20121;-78
2022/04/24 08:40:13;;;;;;;16.77;10.73;;;;;;;13.28;57.47;97465.88;5024018;28;20037;-76
2022/04/24 08:42:40;;;;;;;11.73;9.90;;;;;;;13.35;57.86;97483.13;5029085;28;20047;-76
2022/04/24 08:45:08;;;;;;;14.55;10.95;;;;;;;13.44;57.88;97470.63;5027810;28;20490;-77
2022/04/24 08:47:34;;;;;;;19.13;11.18;;;;;;;13.38;58.25;97479.84;5023190;28;20494;-77
2022/04/24 08:50:00;;;;;;;132.05;23.55;;;;;;;13.43;58.50;97482.41;5024953;28;20037;-77
2022/04/24 08:52:28;;;;;;;141.32;25.52;;;;;;;13.69;58.00;97481.88;5026491;28;20052;-77
2022/04/24 08:54:55;;;;;;;125.50;22.63;;;;;;;13.70;57.68;97476.22;5028505;28;20081;-78
2022/04/24 08:57:26;;;;;;;86.47;21.35;;;;;;;13.74;57.64;97481.78;5030525;28;20021;-78
2022/04/24 08:59:53;;;;;;;28.48;13.43;;;;;;;14.02;57.58;97483.28;5026268;28;20071;-78
2022/04/24 09:02:18;;;;;;;28.27;11.85;;;;;;;14.22;57.11;97482.78;5028990;28;21084;-77
2022/04/24 09:04:43;;;;;;;46.33;13.75;;;;;;;14.29;56.49;97483.19;5028225;28;20071;-77
2022/04/24 09:07:10;;;;;;;54.22;13.88;;;;;;;14.42;56.52;97476.97;5025320;28;20096;-79
2022/04/24 09:09:42;;;;;;;119.43;25.85;;;;;;;14.52;55.67;97474.06;5025676;28;20041;-79
2022/04/24 09:12:16;;;;;;;174.45;31.23;;;;;;;14.77;55.13;97472.59;5027349;28;20029;-77
2022/04/24 09:14:49;;;;;;;44.22;15.10;;;;;;;14.89;55.48;97478.19;5023841;28;20470;-77
2022/04/24 09:17:19;;;;;;;123.90;25.40;;;;;;;15.05;54.76;97473.19;5027942;28;20486;-77
2022/04/24 09:19:45;;;;;;;37.25;15.50;;;;;;;15.05;54.13;97473.19;5026399;28;20112;-78
2022/04/24 09:22:12;;;;;;;19.80;11.02;;;;;;;15.03;54.21;97466.22;5027070;28;20064;-78
2022/04/24 09:24:52;;;;;;;29.65;11.05;;;;;;;15.05;54.84;97465.16;5039393;28;20017;-75
2022/04/24 09:27:26;;;;;;;24.27;10.32;;;;;;;15.27;54.31;97459.66;5025769;28;20044;-77
2022/04/24 09:29:55;;;;;;;24.88;12.30;;;;;;;15.29;53.55;97460.16;5025862;28;20022;-77
2022/04/24 09:32:25;;;;;;;90.40;29.95;;;;;;;15.43;52.09;97455.44;5024174;28;20033;-76
2022/04/24 09:34:51;;;;;;;50.80;17.02;;;;;;;15.65;50.72;97452.66;5025403;28;20017;-76
2022/04/24 09:37:17;;;;;;;15.80;10.45;;;;;;;15.72;49.73;97451.09;5024048;28;20393;-76
2022/04/24 09:39:43;;;;;;;15.55;9.75;;;;;;;15.85;49.54;97443.19;5024242;28;20057;-76
2022/04/24 09:42:09;;;;;;;18.02;9.73;;;;;;;15.97;49.49;97446.00;5025869;28;20103;-76
2022/04/24 09:44:47;;;;;;;19.20;11.32;;;;;;;15.97;49.56;97456.78;5027969;28;20029;-76
2022/04/24 09:47:13;;;;;;;21.13;9.10;;;;;;;15.98;49.04;97451.09;5026172;28;20029;-76
2022/04/24 09:49:45;;;;;;;15.02;9.63;;;;;;;16.13;48.51;97439.84;5023533;28;20025;-77
2022/04/24 09:52:14;;;;;;;16.35;9.82;;;;;;;16.17;49.07;97443.47;5029146;28;20489;-77
2022/04/24 09:54:51;;;;;;;11.82;9.15;;;;;;;16.20;49.11;97442.84;5025919;28;20080;-76
2022/04/24 09:57:17;;;;;;;13.07;9.30;;;;;;;16.23;48.20;97442.19;5028019;28;20090;-77
2022/04/24 09:59:45;;;;;;;13.50;10.45;;;;;;;16.27;48.40;97445.06;5023298;28;20383;-77
2022/04/24 10:02:20;;;;;;;10.98;9.90;;;;;;;16.40;48.59;97434.09;5028559;28;20486;-77
2022/04/24 10:04:46;;;;;;;12.93;9.30;;;;;;;16.60;47.24;97445.34;5027672;28;20112;-77
2022/04/24 10:07:14;;;;;;;10.18;9.13;;;;;;;16.65;47.43;97445.16;5028028;28;20056;-77
2022/04/24 10:09:41;;;;;;;8.65;7.82;;;;;;;16.77;47.56;97442.59;5020832;28;20033;-76
2022/04/24 10:12:08;;;;;;;9.35;8.43;;;;;;;17.05;47.61;97438.34;5028309;28;20061;-78
2022/04/24 10:14:44;;;;;;;10.10;9.10;;;;;;;16.95;46.68;97438.72;5023281;28;20103;-78
2022/04/24 10:17:26;;;;;;;10.18;9.10;;;;;;;16.93;46.10;97435.53;5020287;28;20029;-78
2022/04/24 10:19:54;;;;;;;8.95;8.05;;;;;;;16.89;46.54;97443.50;5027793;28;20501;-77
2022/04/24 10:22:40;;;;;;;14.18;8.95;;;;;;;16.88;46.11;97446.53;5027221;28;20029;-78
2022/04/24 10:25:07;;;;;;;10.30;9.30;;;;;;;16.91;46.35;97432.38;5024513;28;20022;-78
2022/04/24 10:27:50;;;;;;;10.98;8.88;;;;;;;16.77;46.06;97435.31;5026858;28;20044;-78
2022/04/24 10:30:24;;;;;;;176.20;31.98;;;;;;;16.73;46.66;97437.03;5027570;28;20398;-78
2022/04/24 10:33:20;;;;;;;91.32;24.40;;;;;;;16.71;46.20;97425.78;5022844;28;20033;-78
2022/04/24 10:35:55;;;;;;;171.80;29.45;;;;;;;16.86;46.20;97436.03;5027731;28;20036;-78
2022/04/24 10:38:23;;;;;;;101.20;18.85;;;;;;;16.84;46.54;97432.13;5028782;28;20504;-78
2022/04/24 10:41:24;;;;;;;54.72;14.20;;;;;;;16.96;46.71;97424.13;5029508;28;21869;-77
2022/04/24 10:43:56;;;;;;;33.92;8.98;;;;;;;17.05;46.41;97425.69;5016846;28;20041;-78
2022/04/24 10:46:28;;;;;;;13.60;8.07;;;;;;;17.14;45.90;97431.81;5030512;28;20026;-78
2022/04/24 10:49:05;;;;;;;11.18;7.47;;;;;;;17.19;44.98;97430.81;5025934;28;20068;-77
2022/04/24 10:51:32;;;;;;;13.05;7.45;;;;;;;17.11;44.68;97431.66;5025729;28;20025;-78
2022/04/24 10:54:13;;;;;;;11.82;7.15;;;;;;;17.14;44.43;97429.13;5031100;28;20048;-79
2022/04/24 10:56:41;;;;;;;8.35;6.70;;;;;;;17.18;44.71;97421.16;5028157;28;20194;-78
2022/04/24 10:59:13;;;;;;;11.35;7.97;;;;;;;17.18;44.37;97430.06;5033100;28;20065;-78
2022/04/24 11:01:43;;;;;;;14.13;6.53;;;;;;;17.12;45.33;97427.88;5025226;28;20037;-79
2022/04/24 11:04:10;;;;;;;13.85;7.18;;;;;;;17.13;45.13;97424.03;5026174;28;20029;-79
2022/04/24 11:06:36;;;;;;;9.80;6.47;;;;;;;16.99;45.49;97437.72;5029739;28;20033;-76
2022/04/24 11:09:09;;;;;;;12.38;8.13;;;;;;;17.00;45.63;97431.25;5029431;28;20081;-77
2022/04/24 11:11:45;;;;;;;13.20;8.23;;;;;;;16.95;45.54;97428.72;5029594;28;20079;-77
2022/04/24 11:14:10;;;;;;;11.05;7.22;;;;;;;16.95;44.97;97427.94;5032923;28;20060;-77
2022/04/24 11:16:36;;;;;;;8.25;6.35;;;;;;;16.92;45.00;97425.88;5032094;28;20061;-78
2022/04/24 11:19:01;;;;;;;7.82;6.65;;;;;;;16.77;45.15;97429.91;5029493;28;20057;-77
2022/04/24 11:21:27;;;;;;;8.30;7.50;;;;;;;16.92;44.82;97421.31;5029045;28;20053;-78
2022/04/24 11:23:58;;;;;;;7.28;6.63;;;;;;;16.92;45.01;97420.50;5033146;28;20029;-78
2022/04/24 11:26:24;;;;;;;9.18;7.00;;;;;;;17.03;45.26;97419.81;5028159;28;20139;-77
2022/04/24 11:28:49;;;;;;;9.45;7.13;;;;;;;17.29;44.55;97414.28;5030997;28;20116;-78